General Aviation Weather

Text Reports

Enter one or more of the following location identifiers separated by a space:

Zip Code, Four-Character ICAO or Three-Character IATA airport codes.

METAR - Aviation Routine Weather Report
LGMT - Mytilini,
Updated at 8:50 AM GMT on September 21, 2014 (11:50 AM EEST):
METAR LGMT 210850Z VRB03KT 9999 FEW025 SCT180 27/16 Q1015
TAF - Terminal Area Forecast
LGMT - Mytilini,
Updated at 8:50 AM GMT on September 21, 2014 (11:50 AM EEST):
TAF LGMT 210800Z 2109/2118 33006KT 9999 FEW020=
Decoded:
ID: LGMT   Mitilini, GR
INITIAL WX
   VISIBILITY: 19.0 MILES
   COMMENTS: 000 FCGR31 KWBC 192012 TAF TAF LGAD 192000Z 1921/2006 VRB03KT 9999 FEW020= 

PIREP - Pilot Weather Report
LGMT - Mytilini,
Updated at 8:50 AM GMT on September 21, 2014 (11:50 AM EEST):
No PIREP is currently available for this location.
AIRMET - Airmens Meteorological Information
LGMT - Mytilini,
Updated at 8:50 AM GMT on September 21, 2014 (11:50 AM EEST):
No AIRMET is currently available for this location.
SIGMET - Significant Meteorological Information
LGMT - Mytilini,
Updated at 8:50 AM GMT on September 21, 2014 (11:50 AM EEST):
No SIGMET is currently available for this location.
NOTAM - Notice to Airmen
LGMT - Mytilini,
Updated at 8:50 AM GMT on September 21, 2014 (11:50 AM EEST):
No NOTAM is currently available for this location.
Forecast Area
LGMT - Mytilini,
Updated at 8:50 AM GMT on September 21, 2014 (11:50 AM EEST):
No NOTAM is currently available for this location.
Aviation Weather Maps